createdAt,value
2018-05-21T04:01:10.136Z,95670
2018-05-21T04:03:55.893Z,95671
2018-05-21T04:06:24.946Z,95677
2018-05-21T04:08:53.979Z,95679
2018-05-21T04:11:23.016Z,95678
2018-05-21T04:13:52.072Z,95678
2018-05-21T04:16:21.122Z,95680
2018-05-21T04:18:50.985Z,95679
2018-05-21T04:21:20.024Z,95682
2018-05-21T04:23:49.063Z,95678
2018-05-21T04:26:18.088Z,95685
2018-05-21T04:28:47.153Z,95680
2018-05-21T04:31:16.169Z,95676
2018-05-21T04:33:45.256Z,95683
2018-05-21T04:36:14.278Z,95682
2018-05-21T04:38:43.337Z,95669
2018-05-21T04:41:12.386Z,95672
2018-05-21T04:43:42.235Z,95673
2018-05-21T04:46:11.264Z,95666
2018-05-21T04:48:40.306Z,95674
2018-05-21T04:51:10.123Z,95673
2018-05-21T04:53:39.162Z,95671
2018-05-21T04:56:08.175Z,95682
2018-05-21T04:58:37.237Z,95677
2018-05-21T05:01:06.273Z,95688
2018-05-21T05:03:35.388Z,95682
2018-05-21T05:06:04.439Z,95678
2018-05-21T05:08:33.551Z,95673
2018-05-21T05:11:02.589Z,95675
2018-05-21T05:13:31.620Z,95669
2018-05-21T05:16:00.654Z,95670
2018-05-21T05:18:29.684Z,95661
2018-05-21T05:20:58.739Z,95662
2018-05-21T05:23:27.742Z,95668
2018-05-21T05:25:56.797Z,95660
2018-05-21T05:28:25.811Z,95666
2018-05-21T05:30:54.833Z,95658
2018-05-21T05:33:23.867Z,95652
2018-05-21T05:35:52.945Z,95661
2018-05-21T05:38:21.968Z,95662
2018-05-21T05:40:50.984Z,95652
2018-05-21T05:43:20.821Z,95655
2018-05-21T05:45:49.839Z,95667
2018-05-21T05:48:18.848Z,95663
2018-05-21T05:50:47.913Z,95656
2018-05-21T05:53:16.949Z,95649
2018-05-21T05:55:45.957Z,95652
2018-05-21T05:58:15.764Z,95650
2018-05-21T06:00:44.815Z,95657
2018-05-21T06:03:13.836Z,95648
2018-05-21T06:05:42.876Z,95662
2018-05-21T06:08:11.897Z,95654
2018-05-21T06:10:40.932Z,95656
2018-05-21T06:13:10.723Z,95649
2018-05-21T06:15:39.772Z,95645
2018-05-21T06:18:08.779Z,95646
2018-05-21T06:20:38.106Z,95645
2018-05-21T06:23:07.115Z,95644
2018-05-21T06:25:36.119Z,95634
2018-05-21T06:28:05.927Z,95633
2018-05-21T06:30:34.943Z,95637
2018-05-21T06:33:03.990Z,95642
2018-05-21T06:35:33.051Z,95638
2018-05-21T06:38:02.071Z,95631
2018-05-21T06:40:31.104Z,95633
2018-05-21T06:43:00.119Z,95622
2018-05-21T06:45:29.187Z,95625
2018-05-21T06:47:58.191Z,95632
2018-05-21T06:50:27.215Z,95619
2018-05-21T06:52:56.264Z,95618
2018-05-21T06:55:25.301Z,95620
2018-05-21T06:57:54.624Z,95613
2018-05-21T07:00:23.680Z,95605
2018-05-21T07:02:52.691Z,95618
2018-05-21T07:05:21.755Z,95618
2018-05-21T07:07:51.545Z,95613
2018-05-21T07:10:20.547Z,95619
2018-05-21T07:12:49.662Z,95612
2018-05-21T07:15:19.446Z,95613
2018-05-21T07:17:48.451Z,95614
2018-05-21T07:20:18.300Z,95609
2018-05-21T07:22:47.307Z,95617
2018-05-21T07:25:16.328Z,95606
2018-05-21T07:27:45.396Z,95601
2018-05-21T07:30:14.411Z,95602
2018-05-21T07:32:43.436Z,95601
2018-05-21T07:35:12.478Z,95597
2018-05-21T07:37:41.494Z,95604
2018-05-21T07:40:10.531Z,95605
2018-05-21T07:42:40.347Z,95601
2018-05-21T07:45:09.400Z,95604
2018-05-21T07:47:38.416Z,95597
2018-05-21T07:50:08.315Z,95595
2018-05-21T07:52:37.353Z,95593
2018-05-21T07:55:06.385Z,95587
2018-05-21T07:57:35.456Z,95582
2018-05-21T15:01:57.364Z,95369
2018-05-21T15:04:26.384Z,95366
2018-05-21T15:06:55.462Z,95356
2018-05-21T15:09:24.467Z,95360
2018-05-21T15:11:53.494Z,95352
2018-05-21T15:14:22.567Z,95356
2018-05-21T15:16:52.177Z,95361
2018-05-21T15:19:21.593Z,95354
2018-05-21T15:21:50.768Z,95358
2018-05-21T15:24:19.931Z,95361
2018-05-21T15:26:49.179Z,95365
2018-05-21T15:29:18.256Z,95363
2018-05-21T15:31:47.479Z,95368
2018-05-21T15:34:17.035Z,95366
2018-05-21T15:36:46.131Z,95368
2018-05-21T15:39:15.219Z,95364
2018-05-21T15:41:44.770Z,95359
2018-05-21T15:44:14.496Z,95367
2018-05-21T15:46:43.722Z,95363
2018-05-21T15:49:12.845Z,95364
2018-05-21T15:51:42.623Z,95361
2018-05-21T15:54:12.436Z,95365
2018-05-21T15:56:42.221Z,95362
2018-05-21T15:59:11.378Z,95359
2018-05-21T16:01:41.185Z,95349
2018-05-21T16:04:22.793Z,95362
2018-05-21T16:06:52.105Z,95353
2018-05-21T16:09:21.247Z,95346
2018-05-21T16:11:50.318Z,95348
2018-05-21T16:14:19.447Z,95347
2018-05-21T16:16:48.502Z,95349
2018-05-21T16:19:17.630Z,95351
2018-05-21T16:21:47.394Z,95347
2018-05-21T16:24:16.407Z,95343
2018-05-21T16:26:46.283Z,95346
2018-05-21T16:29:16.172Z,95339
2018-05-21T16:31:45.174Z,95347
2018-05-21T16:34:14.223Z,95345
2018-05-21T16:36:43.248Z,95346
2018-05-21T16:39:12.292Z,95345
2018-05-21T16:41:42.026Z,95342
2018-05-21T16:44:11.126Z,95339
2018-05-21T16:46:40.169Z,95337
2018-05-21T16:49:09.184Z,95338
2018-05-21T16:51:38.240Z,95339
2018-05-21T16:54:07.340Z,95337
2018-05-21T16:56:36.307Z,95345
2018-05-21T16:59:06.128Z,95351
2018-05-21T17:01:35.139Z,95351
2018-05-21T17:04:04.187Z,95348
2018-05-21T17:06:33.204Z,95355
2018-05-21T17:09:02.271Z,95354
2018-05-21T17:11:31.308Z,95363
2018-05-21T17:14:00.324Z,95358
2018-05-21T17:16:29.389Z,95360
2018-05-21T17:18:58.399Z,95350
2018-05-21T17:21:27.414Z,95349
2018-05-21T17:23:56.484Z,95356
2018-05-21T17:26:25.504Z,95351
2018-05-21T17:28:54.526Z,95350
2018-05-21T17:31:23.568Z,95347
2018-05-21T17:33:52.619Z,95339
2018-05-21T17:36:21.627Z,95345
2018-05-21T17:38:50.679Z,95345
2018-05-21T17:41:19.699Z,95347
2018-05-21T17:43:48.752Z,95345
2018-05-21T17:46:17.763Z,95357
2018-05-21T17:48:46.770Z,95346
2018-05-21T17:51:19.645Z,95349
2018-05-21T17:53:59.828Z,95349
2018-05-21T17:56:29.641Z,95348
2018-05-21T17:58:58.646Z,95352
2018-05-21T18:01:27.703Z,95355
2018-05-21T18:03:56.737Z,95356
2018-05-21T18:06:28.450Z,95357
2018-05-21T18:08:58.210Z,95356
2018-05-21T18:11:31.907Z,95365
2018-05-21T18:14:02.144Z,95369
2018-05-21T18:16:31.459Z,95362
2018-05-21T18:19:06.078Z,95375
2018-05-21T18:21:35.279Z,95367
2018-05-21T18:24:04.546Z,95374
2018-05-21T18:26:37.171Z,95365
2018-05-21T18:29:09.892Z,95368
2018-05-21T18:31:42.951Z,95368
2018-05-21T18:34:12.859Z,95364
2018-05-21T18:36:41.899Z,95378
2018-05-21T18:39:12.401Z,95376
2018-05-21T18:41:41.837Z,95376
2018-05-21T18:44:10.850Z,95376
2018-05-21T18:46:39.872Z,95375
2018-05-21T18:49:08.940Z,95372
2018-05-21T18:51:37.964Z,95379
2018-05-21T18:54:07.015Z,95379
2018-05-21T18:56:36.056Z,95377
2018-05-21T18:59:05.059Z,95379
2018-05-21T19:01:34.119Z,95384
2018-05-21T19:04:03.125Z,95377
2018-05-21T19:06:32.159Z,95379
2018-05-21T19:09:01.944Z,95373
2018-05-21T19:11:31.121Z,95371
2018-05-21T19:14:00.136Z,95369
2018-05-21T19:16:29.254Z,95375
2018-05-21T19:18:58.413Z,95366
2018-05-21T19:21:27.428Z,95371
2018-05-21T19:23:56.467Z,95373
2018-05-21T19:26:26.322Z,95373
2018-05-21T19:28:55.368Z,95374
2018-05-21T19:31:24.374Z,95382
2018-05-21T19:33:53.424Z,95379
2018-05-21T19:36:22.456Z,95377
2018-05-21T19:38:51.800Z,95379
2018-05-21T19:41:21.908Z,95379
2018-05-21T19:43:51.031Z,95383
2018-05-21T19:46:20.046Z,95386
2018-05-21T19:48:49.127Z,95390
2018-05-21T19:51:19.090Z,95388
2018-05-21T19:53:48.101Z,95381
2018-05-21T19:56:17.634Z,95373
2018-05-21T19:58:46.696Z,95371
2018-05-21T20:01:15.724Z,95378
2018-05-21T20:03:44.755Z,95367
2018-05-21T20:06:13.854Z,95368
2018-05-21T20:08:42.817Z,95362
2018-05-21T20:11:14.215Z,95359
2018-05-21T20:13:43.928Z,95375
2018-05-21T20:16:12.887Z,95370
2018-05-21T20:18:41.926Z,95371
2018-05-21T20:21:10.953Z,95369
2018-05-21T20:23:40.007Z,95374
2018-05-21T20:26:09.027Z,95373
2018-05-21T20:28:38.070Z,95370
2018-05-21T20:31:07.091Z,95371
2018-05-21T20:33:36.147Z,95381
2018-05-21T20:36:05.187Z,95383
2018-05-21T20:38:34.239Z,95385
2018-05-21T20:41:03.248Z,95384
2018-05-21T20:43:32.303Z,95389
2018-05-21T20:46:02.087Z,95383
2018-05-21T20:48:31.106Z,95388
2018-05-21T20:51:00.933Z,95394
2018-05-21T20:53:29.977Z,95393
2018-05-21T20:55:59.000Z,95395
2018-05-21T20:58:28.818Z,95396
2018-05-21T21:00:57.823Z,95398
2018-05-21T21:03:26.900Z,95394
2018-05-21T21:05:56.698Z,95396
2018-05-21T21:08:25.709Z,95405
2018-05-21T21:10:55.520Z,95409
2018-05-21T21:13:24.548Z,95397
2018-05-21T21:15:53.564Z,95400
2018-05-21T21:18:22.612Z,95395
2018-05-21T21:20:51.623Z,95397
2018-05-21T21:23:20.688Z,95386
2018-05-21T21:25:49.700Z,95387
2018-05-21T21:28:18.714Z,95383
2018-05-21T21:30:47.723Z,95385
2018-05-21T21:33:16.778Z,95392
2018-05-21T21:35:45.816Z,95384
2018-05-21T21:38:14.833Z,95387
2018-05-21T21:40:43.868Z,95394
2018-05-21T21:43:12.871Z,95388
2018-05-21T21:45:41.927Z,95388
2018-05-21T21:48:11.700Z,95390
2018-05-21T21:50:40.720Z,95395
2018-05-21T21:53:10.532Z,95392
2018-05-21T21:55:40.343Z,95377
2018-05-21T21:58:10.140Z,95384
